sensor_id;sensor_type;location;lat;lon;timestamp;pressure;altitude;pressure_sealevel;temperature
74539;BMP180;66042;51.090;-115.340;2024-01-15T00:00:31;86880.00;;;-22.60
74539;BMP180;66042;51.090;-115.340;2024-01-15T00:02:58;86885.40;;;-22.60
74539;BMP180;66042;51.090;-115.340;2024-01-15T00:05:25;86890.40;;;-22.62
74539;BMP180;66042;51.090;-115.340;2024-01-15T00:07:52;86897.60;;;-22.70
74539;BMP180;66042;51.090;-115.340;2024-01-15T00:10:19;86905.60;;;-22.80
74539;BMP180;66042;51.090;-115.340;2024-01-15T00:12:46;86916.00;;;-22.84
74539;BMP180;66042;51.090;-115.340;2024-01-15T00:15:13;86924.20;;;-22.90
74539;BMP180;66042;51.090;-115.340;2024-01-15T00:17:40;86923.40;;;-22.90
74539;BMP180;66042;51.090;-115.340;2024-01-15T00:20:08;86925.40;;;-22.94
74539;BMP180;66042;51.090;-115.340;2024-01-15T00:22:35;86932.20;;;-23.00
74539;BMP180;66042;51.090;-115.340;2024-01-15T00:25:03;86936.60;;;-23.10
74539;BMP180;66042;51.090;-115.340;2024-01-15T00:27:30;86939.20;;;-23.10
74539;BMP180;66042;51.090;-115.340;2024-01-15T00:29:57;86941.00;;;-23.10
74539;BMP180;66042;51.090;-115.340;2024-01-15T00:32:24;86945.20;;;-23.20
74539;BMP180;66042;51.090;-115.340;2024-01-15T00:34:51;86958.00;;;-23.20
74539;BMP180;66042;51.090;-115.340;2024-01-15T00:37:18;86960.00;;;-23.30
74539;BMP180;66042;51.090;-115.340;2024-01-15T00:39:45;86958.40;;;-23.30
74539;BMP180;66042;51.090;-115.340;2024-01-15T00:42:12;86957.60;;;-23.40
74539;BMP180;66042;51.090;-115.340;2024-01-15T00:44:39;86963.80;;;-23.40
74539;BMP180;66042;51.090;-115.340;2024-01-15T00:47:06;86968.60;;;-23.50
74539;BMP180;66042;51.090;-115.340;2024-01-15T00:49:33;86975.60;;;-23.50
74539;BMP180;66042;51.090;-115.340;2024-01-15T00:52:00;86978.00;;;-23.60
74539;BMP180;66042;51.090;-115.340;2024-01-15T00:54:27;86979.80;;;-23.60
74539;BMP180;66042;51.090;-115.340;2024-01-15T00:56:54;86983.20;;;-23.60
74539;BMP180;66042;51.090;-115.340;2024-01-15T00:59:21;86986.40;;;-23.68
74539;BMP180;66042;51.090;-115.340;2024-01-15T01:01:48;86990.60;;;-23.70
74539;BMP180;66042;51.090;-115.340;2024-01-15T01:04:15;86984.60;;;-23.70
74539;BMP180;66042;51.090;-115.340;2024-01-15T01:06:42;86988.60;;;-23.74
74539;BMP180;66042;51.090;-115.340;2024-01-15T01:09:08;86992.00;;;-23.80
74539;BMP180;66042;51.090;-115.340;2024-01-15T01:11:35;87002.20;;;-23.86
74539;BMP180;66042;51.090;-115.340;2024-01-15T01:14:02;87008.80;;;-23.90
74539;BMP180;66042;51.090;-115.340;2024-01-15T01:16:29;87004.60;;;-23.90
74539;BMP180;66042;51.090;-115.340;2024-01-15T01:18:57;87009.60;;;-24.00
74539;BMP180;66042;51.090;-115.340;2024-01-15T01:21:24;87007.00;;;-24.00
74539;BMP180;66042;51.090;-115.340;2024-01-15T01:23:51;87005.00;;;-24.00
74539;BMP180;66042;51.090;-115.340;2024-01-15T01:26:19;87012.40;;;-24.06
74539;BMP180;66042;51.090;-115.340;2024-01-15T01:28:45;87021.20;;;-24.10
74539;BMP180;66042;51.090;-115.340;2024-01-15T01:31:12;87023.80;;;-24.10
74539;BMP180;66042;51.090;-115.340;2024-01-15T01:33:39;87029.80;;;-24.18
74539;BMP180;66042;51.090;-115.340;2024-01-15T01:36:10;87037.20;;;-24.22
74539;BMP180;66042;51.090;-115.340;2024-01-15T01:38:37;87046.40;;;-24.30
74539;BMP180;66042;51.090;-115.340;2024-01-15T01:41:05;87041.80;;;-24.40
74539;BMP180;66042;51.090;-115.340;2024-01-15T01:43:32;87049.80;;;-24.40
74539;BMP180;66042;51.090;-115.340;2024-01-15T01:46:00;87054.00;;;-24.40
74539;BMP180;66042;51.090;-115.340;2024-01-15T01:48:27;87065.80;;;-24.42
74539;BMP180;66042;51.090;-115.340;2024-01-15T01:50:58;87068.20;;;-24.44
74539;BMP180;66042;51.090;-115.340;2024-01-15T01:53:27;87070.60;;;-24.42
74539;BMP180;66042;51.090;-115.340;2024-01-15T01:55:56;87074.60;;;-24.40
74539;BMP180;66042;51.090;-115.340;2024-01-15T01:58:24;87082.60;;;-24.44
74539;BMP180;66042;51.090;-115.340;2024-01-15T02:00:52;87084.20;;;-24.50
74539;BMP180;66042;51.090;-115.340;2024-01-15T02:03:20;87087.80;;;-24.50
74539;BMP180;66042;51.090;-115.340;2024-01-15T02:05:49;87092.40;;;-24.60
74539;BMP180;66042;51.090;-115.340;2024-01-15T02:08:16;87100.80;;;-24.60
74539;BMP180;66042;51.090;-115.340;2024-01-15T02:10:44;87108.40;;;-24.60
74539;BMP180;66042;51.090;-115.340;2024-01-15T02:13:11;87106.40;;;-24.60
74539;BMP180;66042;51.090;-115.340;2024-01-15T02:15:37;87114.20;;;-24.60
74539;BMP180;66042;51.090;-115.340;2024-01-15T02:18:06;87115.80;;;-24.68
74539;BMP180;66042;51.090;-115.340;2024-01-15T02:20:36;87112.60;;;-24.70
74539;BMP180;66042;51.090;-115.340;2024-01-15T02:23:16;87119.40;;;-24.70
74539;BMP180;66042;51.090;-115.340;2024-01-15T02:25:47;87126.20;;;-24.76
74539;BMP180;66042;51.090;-115.340;2024-01-15T02:28:18;87128.40;;;-24.80
74539;BMP180;66042;51.090;-115.340;2024-01-15T02:30:46;87129.40;;;-24.80
74539;BMP180;66042;51.090;-115.340;2024-01-15T02:33:13;87132.00;;;-24.80
74539;BMP180;66042;51.090;-115.340;2024-01-15T02:35:41;87137.40;;;-24.80
74539;BMP180;66042;51.090;-115.340;2024-01-15T02:38:08;87136.20;;;-24.90
74539;BMP180;66042;51.090;-115.340;2024-01-15T02:40:37;87140.20;;;-24.90
74539;BMP180;66042;51.090;-115.340;2024-01-15T02:43:04;87149.80;;;-24.98
74539;BMP180;66042;51.090;-115.340;2024-01-15T02:45:32;87147.60;;;-25.00
74539;BMP180;66042;51.090;-115.340;2024-01-15T02:47:59;87158.40;;;-25.00
74539;BMP180;66042;51.090;-115.340;2024-01-15T02:50:26;87160.00;;;-25.00
74539;BMP180;66042;51.090;-115.340;2024-01-15T02:52:53;87159.00;;;-25.00
74539;BMP180;66042;51.090;-115.340;2024-01-15T02:55:20;87153.40;;;-25.10
74539;BMP180;66042;51.090;-115.340;2024-01-15T02:57:48;87159.80;;;-25.10
74539;BMP180;66042;51.090;-115.340;2024-01-15T03:00:15;87165.00;;;-25.10
74539;BMP180;66042;51.090;-115.340;2024-01-15T03:02:45;87167.20;;;-25.12
74539;BMP180;66042;51.090;-115.340;2024-01-15T03:05:12;87165.40;;;-25.20
74539;BMP180;66042;51.090;-115.340;2024-01-15T03:07:39;87168.40;;;-25.20
74539;BMP180;66042;51.090;-115.340;2024-01-15T03:10:07;87168.60;;;-25.30
74539;BMP180;66042;51.090;-115.340;2024-01-15T03:12:34;87174.20;;;-25.30
74539;BMP180;66042;51.090;-115.340;2024-01-15T03:15:01;87172.60;;;-25.30
74539;BMP180;66042;51.090;-115.340;2024-01-15T03:17:29;87182.60;;;-25.40
74539;BMP180;66042;51.090;-115.340;2024-01-15T03:19:56;87186.60;;;-25.40
74539;BMP180;66042;51.090;-115.340;2024-01-15T03:22:23;87192.20;;;-25.40
74539;BMP180;66042;51.090;-115.340;2024-01-15T03:24:49;87198.40;;;-25.40
74539;BMP180;66042;51.090;-115.340;2024-01-15T03:27:16;87209.80;;;-25.40
74539;BMP180;66042;51.090;-115.340;2024-01-15T03:29:43;87214.40;;;-25.50
74539;BMP180;66042;51.090;-115.340;2024-01-15T03:32:10;87219.20;;;-25.50
74539;BMP180;66042;51.090;-115.340;2024-01-15T03:34:38;87219.20;;;-25.50
74539;BMP180;66042;51.090;-115.340;2024-01-15T03:37:05;87225.60;;;-25.50
74539;BMP180;66042;51.090;-115.340;2024-01-15T03:39:32;87230.20;;;-25.52
74539;BMP180;66042;51.090;-115.340;2024-01-15T03:41:59;87227.80;;;-25.60
74539;BMP180;66042;51.090;-115.340;2024-01-15T03:44:26;87231.20;;;-25.60
74539;BMP180;66042;51.090;-115.340;2024-01-15T03:46:53;87236.00;;;-25.60
74539;BMP180;66042;51.090;-115.340;2024-01-15T03:49:20;87239.00;;;-25.60
74539;BMP180;66042;51.090;-115.340;2024-01-15T03:51:47;87240.60;;;-25.70
74539;BMP180;66042;51.090;-115.340;2024-01-15T03:54:14;87241.80;;;-25.70
74539;BMP180;66042;51.090;-115.340;2024-01-15T03:56:41;87248.80;;;-25.70
74539;BMP180;66042;51.090;-115.340;2024-01-15T03:59:08;87260.60;;;-25.74
74539;BMP180;66042;51.090;-115.340;2024-01-15T04:01:35;87269.40;;;-25.80
74539;BMP180;66042;51.090;-115.340;2024-01-15T04:04:02;87274.60;;;-25.80
74539;BMP180;66042;51.090;-115.340;2024-01-15T04:06:29;87276.00;;;-25.88
74539;BMP180;66042;51.090;-115.340;2024-01-15T04:08:56;87277.00;;;-25.90
74539;BMP180;66042;51.090;-115.340;2024-01-15T04:11:23;87280.60;;;-26.00
74539;BMP180;66042;51.090;-115.340;2024-01-15T04:13:50;87286.40;;;-26.00
74539;BMP180;66042;51.090;-115.340;2024-01-15T04:16:17;87288.60;;;-26.06
74539;BMP180;66042;51.090;-115.340;2024-01-15T04:18:43;87288.80;;;-26.10
74539;BMP180;66042;51.090;-115.340;2024-01-15T04:21:10;87284.20;;;-26.10
74539;BMP180;66042;51.090;-115.340;2024-01-15T04:23:39;87287.20;;;-26.10
74539;BMP180;66042;51.090;-115.340;2024-01-15T04:26:06;87288.00;;;-26.18
74539;BMP180;66042;51.090;-115.340;2024-01-15T04:28:32;87292.20;;;-26.20
74539;BMP180;66042;51.090;-115.340;2024-01-15T04:30:59;87293.40;;;-26.20
74539;BMP180;66042;51.090;-115.340;2024-01-15T04:33:26;87298.60;;;-26.20
74539;BMP180;66042;51.090;-115.340;2024-01-15T04:35:54;87301.20;;;-26.30
74539;BMP180;66042;51.090;-115.340;2024-01-15T04:38:20;87302.60;;;-26.30
74539;BMP180;66042;51.090;-115.340;2024-01-15T04:40:47;87301.00;;;-26.34
74539;BMP180;66042;51.090;-115.340;2024-01-15T04:43:14;87305.80;;;-26.40
74539;BMP180;66042;51.090;-115.340;2024-01-15T04:45:41;87300.60;;;-26.44
74539;BMP180;66042;51.090;-115.340;2024-01-15T04:48:08;87308.40;;;-26.50
74539;BMP180;66042;51.090;-115.340;2024-01-15T04:50:37;87310.80;;;-26.50
74539;BMP180;66042;51.090;-115.340;2024-01-15T04:53:04;87317.20;;;-26.50
74539;BMP180;66042;51.090;-115.340;2024-01-15T04:55:32;87318.00;;;-26.56
74539;BMP180;66042;51.090;-115.340;2024-01-15T04:57:59;87320.20;;;-26.60
74539;BMP180;66042;51.090;-115.340;2024-01-15T05:00:26;87326.00;;;-26.60
74539;BMP180;66042;51.090;-115.340;2024-01-15T05:02:53;87331.00;;;-26.60
74539;BMP180;66042;51.090;-115.340;2024-01-15T05:05:20;87334.20;;;-26.60
74539;BMP180;66042;51.090;-115.340;2024-01-15T05:07:47;87335.40;;;-26.60
74539;BMP180;66042;51.090;-115.340;2024-01-15T05:10:14;87327.60;;;-26.60
74539;BMP180;66042;51.090;-115.340;2024-01-15T05:12:41;87334.60;;;-26.70
74539;BMP180;66042;51.090;-115.340;2024-01-15T05:15:08;87336.60;;;-26.70
74539;BMP180;66042;51.090;-115.340;2024-01-15T05:17:35;87343.60;;;-26.70
74539;BMP180;66042;51.090;-115.340;2024-01-15T05:20:03;87346.80;;;-26.78
74539;BMP180;66042;51.090;-115.340;2024-01-15T05:22:30;87346.80;;;-26.80
74539;BMP180;66042;51.090;-115.340;2024-01-15T05:24:57;87348.60;;;-26.70
74539;BMP180;66042;51.090;-115.340;2024-01-15T05:27:24;87341.40;;;-26.70
74539;BMP180;66042;51.090;-115.340;2024-01-15T05:29:52;87347.60;;;-26.70
74539;BMP180;66042;51.090;-115.340;2024-01-15T05:32:19;87349.80;;;-26.74
74539;BMP180;66042;51.090;-115.340;2024-01-15T05:34:46;87351.00;;;-26.76
74539;BMP180;66042;51.090;-115.340;2024-01-15T05:37:13;87350.20;;;-26.80
74539;BMP180;66042;51.090;-115.340;2024-01-15T05:39:40;87355.60;;;-26.82
74539;BMP180;66042;51.090;-115.340;2024-01-15T05:42:07;87356.00;;;-26.90
74539;BMP180;66042;51.090;-115.340;2024-01-15T05:44:34;87353.60;;;-26.94
74539;BMP180;66042;51.090;-115.340;2024-01-15T05:47:01;87357.20;;;-27.00
74539;BMP180;66042;51.090;-115.340;2024-01-15T05:49:27;87361.40;;;-27.00
74539;BMP180;66042;51.090;-115.340;2024-01-15T05:51:54;87364.40;;;-27.00
74539;BMP180;66042;51.090;-115.340;2024-01-15T05:54:21;87357.20;;;-27.00
74539;BMP180;66042;51.090;-115.340;2024-01-15T05:56:48;87359.20;;;-27.00
74539;BMP180;66042;51.090;-115.340;2024-01-15T05:59:15;87356.60;;;-27.00
74539;BMP180;66042;51.090;-115.340;2024-01-15T06:01:43;87363.40;;;-27.00
74539;BMP180;66042;51.090;-115.340;2024-01-15T06:04:10;87360.40;;;-26.96
74539;BMP180;66042;51.090;-115.340;2024-01-15T06:06:37;87359.60;;;-26.90
74539;BMP180;66042;51.090;-115.340;2024-01-15T06:09:04;87357.60;;;-26.90
74539;BMP180;66042;51.090;-115.340;2024-01-15T06:11:32;87358.80;;;-27.00
74539;BMP180;66042;51.090;-115.340;2024-01-15T06:13:59;87364.60;;;-27.10
74539;BMP180;66042;51.090;-115.340;2024-01-15T06:16:29;87370.20;;;-27.10
74539;BMP180;66042;51.090;-115.340;2024-01-15T06:18:56;87373.60;;;-27.10
74539;BMP180;66042;51.090;-115.340;2024-01-15T06:21:23;87364.40;;;-27.00
74539;BMP180;66042;51.090;-115.340;2024-01-15T06:23:50;87361.60;;;-27.02
74539;BMP180;66042;51.090;-115.340;2024-01-15T06:26:17;87357.60;;;-27.10
74539;BMP180;66042;51.090;-115.340;2024-01-15T06:28:45;87356.80;;;-27.10
74539;BMP180;66042;51.090;-115.340;2024-01-15T06:31:12;87359.60;;;-27.10
74539;BMP180;66042;51.090;-115.340;2024-01-15T06:33:39;87366.60;;;-27.24
74539;BMP180;66042;51.090;-115.340;2024-01-15T06:36:07;87367.00;;;-27.50
74539;BMP180;66042;51.090;-115.340;2024-01-15T06:38:34;87373.80;;;-27.50
74539;BMP180;66042;51.090;-115.340;2024-01-15T06:41:02;87377.00;;;-27.60
74539;BMP180;66042;51.090;-115.340;2024-01-15T06:43:29;87378.60;;;-27.68
74539;BMP180;66042;51.090;-115.340;2024-01-15T06:45:56;87381.20;;;-27.60
74539;BMP180;66042;51.090;-115.340;2024-01-15T06:48:23;87384.40;;;-27.60
74539;BMP180;66042;51.090;-115.340;2024-01-15T06:50:50;87393.00;;;-27.50
74539;BMP180;66042;51.090;-115.340;2024-01-15T06:53:17;87395.20;;;-27.50
74539;BMP180;66042;51.090;-115.340;2024-01-15T06:55:44;87393.20;;;-27.50
74539;BMP180;66042;51.090;-115.340;2024-01-15T06:58:11;87393.00;;;-27.60
74539;BMP180;66042;51.090;-115.340;2024-01-15T07:00:38;87399.20;;;-27.58
74539;BMP180;66042;51.090;-115.340;2024-01-15T07:03:07;87406.80;;;-27.60
74539;BMP180;66042;51.090;-115.340;2024-01-15T07:05:34;87412.60;;;-27.50
74539;BMP180;66042;51.090;-115.340;2024-01-15T07:08:01;87414.00;;;-27.40
74539;BMP180;66042;51.090;-115.340;2024-01-15T07:10:28;87411.80;;;-27.30
74539;BMP180;66042;51.090;-115.340;2024-01-15T07:12:55;87407.20;;;-27.28
74539;BMP180;66042;51.090;-115.340;2024-01-15T07:15:23;87411.80;;;-27.28
74539;BMP180;66042;51.090;-115.340;2024-01-15T07:17:50;87414.40;;;-27.20
74539;BMP180;66042;51.090;-115.340;2024-01-15T07:20:17;87419.60;;;-27.20
74539;BMP180;66042;51.090;-115.340;2024-01-15T07:22:45;87424.80;;;-27.20
74539;BMP180;66042;51.090;-115.340;2024-01-15T07:25:12;87429.20;;;-27.20
74539;BMP180;66042;51.090;-115.340;2024-01-15T07:27:39;87428.40;;;-27.10
74539;BMP180;66042;51.090;-115.340;2024-01-15T07:30:09;87432.20;;;-27.10
74539;BMP180;66042;51.090;-115.340;2024-01-15T07:32:37;87429.20;;;-27.10
74539;BMP180;66042;51.090;-115.340;2024-01-15T07:35:06;87424.00;;;-27.10
74539;BMP180;66042;51.090;-115.340;2024-01-15T07:37:33;87419.80;;;-27.10
74539;BMP180;66042;51.090;-115.340;2024-01-15T07:40:00;87416.00;;;-27.10
74539;BMP180;66042;51.090;-115.340;2024-01-15T07:42:27;87411.40;;;-27.10
74539;BMP180;66042;51.090;-115.340;2024-01-15T07:44:54;87414.40;;;-27.14
74539;BMP180;66042;51.090;-115.340;2024-01-15T07:47:21;87414.20;;;-27.10
74539;BMP180;66042;51.090;-115.340;2024-01-15T07:49:48;87413.00;;;-27.10
74539;BMP180;66042;51.090;-115.340;2024-01-15T07:52:15;87417.20;;;-27.10
74539;BMP180;66042;51.090;-115.340;2024-01-15T07:54:42;87417.80;;;-27.10
74539;BMP180;66042;51.090;-115.340;2024-01-15T07:57:09;87417.00;;;-27.10
74539;BMP180;66042;51.090;-115.340;2024-01-15T07:59:36;87415.40;;;-27.10
74539;BMP180;66042;51.090;-115.340;2024-01-15T08:02:03;87415.80;;;-27.10
74539;BMP180;66042;51.090;-115.340;2024-01-15T08:04:30;87418.20;;;-27.20
74539;BMP180;66042;51.090;-115.340;2024-01-15T08:06:57;87422.40;;;-27.20
74539;BMP180;66042;51.090;-115.340;2024-01-15T08:09:24;87421.20;;;-27.20
74539;BMP180;66042;51.090;-115.340;2024-01-15T08:11:52;87420.20;;;-27.20
74539;BMP180;66042;51.090;-115.340;2024-01-15T08:14:19;87419.40;;;-27.20
74539;BMP180;66042;51.090;-115.340;2024-01-15T08:16:46;87418.80;;;-27.20
74539;BMP180;66042;51.090;-115.340;2024-01-15T08:19:13;87412.80;;;-27.40
74539;BMP180;66042;51.090;-115.340;2024-01-15T08:21:41;87416.20;;;-27.48
74539;BMP180;66042;51.090;-115.340;2024-01-15T08:24:09;87410.60;;;-27.54
74539;BMP180;66042;51.090;-115.340;2024-01-15T08:26:36;87420.60;;;-27.50
74539;BMP180;66042;51.090;-115.340;2024-01-15T08:29:03;87416.60;;;-27.44
74539;BMP180;66042;51.090;-115.340;2024-01-15T08:31:30;87414.80;;;-27.40
74539;BMP180;66042;51.090;-115.340;2024-01-15T08:33:57;87420.20;;;-27.50
74539;BMP180;66042;51.090;-115.340;2024-01-15T08:36:26;87423.00;;;-27.56
74539;BMP180;66042;51.090;-115.340;2024-01-15T08:38:53;87422.60;;;-27.60
74539;BMP180;66042;51.090;-115.340;2024-01-15T08:41:20;87420.20;;;-27.66
74539;BMP180;66042;51.090;-115.340;2024-01-15T08:43:47;87432.80;;;-27.80
74539;BMP180;66042;51.090;-115.340;2024-01-15T08:46:14;87436.00;;;-27.90
74539;BMP180;66042;51.090;-115.340;2024-01-15T08:48:41;87432.00;;;-28.10
74539;BMP180;66042;51.090;-115.340;2024-01-15T08:51:08;87437.00;;;-28.20
74539;BMP180;66042;51.090;-115.340;2024-01-15T08:53:35;87439.20;;;-28.28
74539;BMP180;66042;51.090;-115.340;2024-01-15T08:56:03;87438.40;;;-28.20
74539;BMP180;66042;51.090;-115.340;2024-01-15T08:58:30;87435.00;;;-28.00
74539;BMP180;66042;51.090;-115.340;2024-01-15T09:00:57;87432.80;;;-27.94
74539;BMP180;66042;51.090;-115.340;2024-01-15T09:03:24;87437.20;;;-27.92
74539;BMP180;66042;51.090;-115.340;2024-01-15T09:05:52;87433.00;;;-27.90
74539;BMP180;66042;51.090;-115.340;2024-01-15T09:08:19;87434.20;;;-27.94
74539;BMP180;66042;51.090;-115.340;2024-01-15T09:10:46;87428.80;;;-28.00
74539;BMP180;66042;51.090;-115.340;2024-01-15T09:13:14;87428.80;;;-27.90
74539;BMP180;66042;51.090;-115.340;2024-01-15T09:15:41;87433.60;;;-27.80
74539;BMP180;66042;51.090;-115.340;2024-01-15T09:18:09;87438.40;;;-27.72
74539;BMP180;66042;51.090;-115.340;2024-01-15T09:20:36;87442.20;;;-27.64
74539;BMP180;66042;51.090;-115.340;2024-01-15T09:23:05;87444.40;;;-27.60
74539;BMP180;66042;51.090;-115.340;2024-01-15T09:25:32;87446.00;;;-27.60
74539;BMP180;66042;51.090;-115.340;2024-01-15T09:27:59;87444.60;;;-27.60
74539;BMP180;66042;51.090;-115.340;2024-01-15T09:30:26;87447.80;;;-27.74
74539;BMP180;66042;51.090;-115.340;2024-01-15T09:32:54;87450.00;;;-27.80
74539;BMP180;66042;51.090;-115.340;2024-01-15T09:35:21;87447.00;;;-27.80
74539;BMP180;66042;51.090;-115.340;2024-01-15T09:37:48;87453.60;;;-27.90
74539;BMP180;66042;51.090;-115.340;2024-01-15T09:40:15;87468.80;;;-28.00
74539;BMP180;66042;51.090;-115.340;2024-01-15T09:42:43;87477.80;;;-28.10
74539;BMP180;66042;51.090;-115.340;2024-01-15T09:45:12;87481.80;;;-28.30
74539;BMP180;66042;51.090;-115.340;2024-01-15T09:47:40;87487.40;;;-28.40
74539;BMP180;66042;51.090;-115.340;2024-01-15T09:50:09;87487.40;;;-28.40
74539;BMP180;66042;51.090;-115.340;2024-01-15T09:52:36;87483.00;;;-28.40
74539;BMP180;66042;51.090;-115.340;2024-01-15T09:55:04;87487.20;;;-28.40
74539;BMP180;66042;51.090;-115.340;2024-01-15T09:57:32;87487.40;;;-28.40
74539;BMP180;66042;51.090;-115.340;2024-01-15T10:00:02;87489.20;;;-28.56
74539;BMP180;66042;51.090;-115.340;2024-01-15T10:02:31;87495.40;;;-28.60
74539;BMP180;66042;51.090;-115.340;2024-01-15T10:04:58;87496.40;;;-28.68
74539;BMP180;66042;51.090;-115.340;2024-01-15T10:07:26;87487.20;;;-28.60
74539;BMP180;66042;51.090;-115.340;2024-01-15T10:09:54;87490.40;;;-28.50
74539;BMP180;66042;51.090;-115.340;2024-01-15T10:12:22;87489.60;;;-28.40
74539;BMP180;66042;51.090;-115.340;2024-01-15T10:14:51;87496.40;;;-28.40
74539;BMP180;66042;51.090;-115.340;2024-01-15T10:17:18;87496.20;;;-28.30
74539;BMP180;66042;51.090;-115.340;2024-01-15T10:19:48;87492.00;;;-28.30
74539;BMP180;66042;51.090;-115.340;2024-01-15T10:22:15;87486.40;;;-28.20
74539;BMP180;66042;51.090;-115.340;2024-01-15T10:24:43;87486.60;;;-28.18
74539;BMP180;66042;51.090;-115.340;2024-01-15T10:27:11;87489.20;;;-28.20
74539;BMP180;66042;51.090;-115.340;2024-01-15T10:29:38;87483.00;;;-28.20
74539;BMP180;66042;51.090;-115.340;2024-01-15T10:32:09;87488.60;;;-28.20
74539;BMP180;66042;51.090;-115.340;2024-01-15T10:34:40;87487.60;;;-28.20
74539;BMP180;66042;51.090;-115.340;2024-01-15T10:37:10;87488.60;;;-28.30
74539;BMP180;66042;51.090;-115.340;2024-01-15T10:39:37;87492.80;;;-28.40
74539;BMP180;66042;51.090;-115.340;2024-01-15T10:42:05;87494.00;;;-28.50
74539;BMP180;66042;51.090;-115.340;2024-01-15T10:44:33;87495.80;;;-28.48
74539;BMP180;66042;51.090;-115.340;2024-01-15T10:47:00;87486.00;;;-28.40
74539;BMP180;66042;51.090;-115.340;2024-01-15T10:49:27;87490.00;;;-28.30
74539;BMP180;66042;51.090;-115.340;2024-01-15T10:51:57;87488.20;;;-28.36
74539;BMP180;66042;51.090;-115.340;2024-01-15T10:54:24;87484.60;;;-28.48
74539;BMP180;66042;51.090;-115.340;2024-01-15T10:56:53;87485.20;;;-28.50
74539;BMP180;66042;51.090;-115.340;2024-01-15T10:59:22;87478.60;;;-28.50
74539;BMP180;66042;51.090;-115.340;2024-01-15T11:01:50;87480.20;;;-28.40
74539;BMP180;66042;51.090;-115.340;2024-01-15T11:04:23;87490.40;;;-28.40
74539;BMP180;66042;51.090;-115.340;2024-01-15T11:06:53;87485.00;;;-28.30
74539;BMP180;66042;51.090;-115.340;2024-01-15T11:09:21;87492.20;;;-28.40
74539;BMP180;66042;51.090;-115.340;2024-01-15T11:11:52;87490.20;;;-28.40
74539;BMP180;66042;51.090;-115.340;2024-01-15T11:14:45;87491.80;;;-28.50
74539;BMP180;66042;51.090;-115.340;2024-01-15T11:17:13;87494.80;;;-28.60
74539;BMP180;66042;51.090;-115.340;2024-01-15T11:19:48;87493.40;;;-28.70
74539;BMP180;66042;51.090;-115.340;2024-01-15T11:25:12;87490.80;;;-28.80
74539;BMP180;66042;51.090;-115.340;2024-01-15T11:27:51;87489.20;;;-28.80
74539;BMP180;66042;51.090;-115.340;2024-01-15T11:30:19;87485.80;;;-28.78
74539;BMP180;66042;51.090;-115.340;2024-01-15T11:32:49;87483.60;;;-28.70
74539;BMP180;66042;51.090;-115.340;2024-01-15T11:35:16;87486.00;;;-28.62
74539;BMP180;66042;51.090;-115.340;2024-01-15T11:40:35;87481.00;;;-28.86
74539;BMP180;66042;51.090;-115.340;2024-01-15T11:43:05;87485.60;;;-29.00
74539;BMP180;66042;51.090;-115.340;2024-01-15T11:45:33;87472.80;;;-29.06
74539;BMP180;66042;51.090;-115.340;2024-01-15T11:48:17;87480.80;;;-29.06
74539;BMP180;66042;51.090;-115.340;2024-01-15T11:50:49;87481.40;;;-29.00
74539;BMP180;66042;51.090;-115.340;2024-01-15T11:53:36;87480.60;;;-28.98
74539;BMP180;66042;51.090;-115.340;2024-01-15T11:56:14;87478.60;;;-28.92
74539;BMP180;66042;51.090;-115.340;2024-01-15T11:58:43;87482.80;;;-28.82
74539;BMP180;66042;51.090;-115.340;2024-01-15T12:01:11;87476.40;;;-28.70
74539;BMP180;66042;51.090;-115.340;2024-01-15T12:03:38;87474.40;;;-28.64
74539;BMP180;66042;51.090;-115.340;2024-01-15T12:06:09;87472.80;;;-28.60
74539;BMP180;66042;51.090;-115.340;2024-01-15T12:08:37;87477.40;;;-28.60
74539;BMP180;66042;51.090;-115.340;2024-01-15T12:11:12;87475.40;;;-28.50
74539;BMP180;66042;51.090;-115.340;2024-01-15T12:13:40;87475.20;;;-28.40
74539;BMP180;66042;51.090;-115.340;2024-01-15T12:16:08;87471.00;;;-28.40
74539;BMP180;66042;51.090;-115.340;2024-01-15T12:18:35;87470.40;;;-28.40
74539;BMP180;66042;51.090;-115.340;2024-01-15T12:21:04;87469.00;;;-28.50
74539;BMP180;66042;51.090;-115.340;2024-01-15T12:23:31;87455.40;;;-28.78
74539;BMP180;66042;51.090;-115.340;2024-01-15T12:25:58;87457.60;;;-28.90
74539;BMP180;66042;51.090;-115.340;2024-01-15T12:28:28;87459.80;;;-29.00
74539;BMP180;66042;51.090;-115.340;2024-01-15T12:30:56;87459.80;;;-29.28
74539;BMP180;66042;51.090;-115.340;2024-01-15T12:33:23;87462.00;;;-29.50
74539;BMP180;66042;51.090;-115.340;2024-01-15T12:35:53;87452.60;;;-29.50
74539;BMP180;66042;51.090;-115.340;2024-01-15T12:38:20;87452.40;;;-29.40
74539;BMP180;66042;51.090;-115.340;2024-01-15T12:40:48;87454.40;;;-29.30
74539;BMP180;66042;51.090;-115.340;2024-01-15T12:43:15;87450.20;;;-29.30
74539;BMP180;66042;51.090;-115.340;2024-01-15T12:45:42;87442.60;;;-29.20
74539;BMP180;66042;51.090;-115.340;2024-01-15T12:48:09;87436.40;;;-29.10
74539;BMP180;66042;51.090;-115.340;2024-01-15T12:50:36;87431.60;;;-29.00
74539;BMP180;66042;51.090;-115.340;2024-01-15T12:53:03;87420.40;;;-29.00
74539;BMP180;66042;51.090;-115.340;2024-01-15T12:55:30;87421.60;;;-29.10
74539;BMP180;66042;51.090;-115.340;2024-01-15T12:57:57;87430.00;;;-29.26
74539;BMP180;66042;51.090;-115.340;2024-01-15T13:00:25;87419.00;;;-29.40
74539;BMP180;66042;51.090;-115.340;2024-01-15T13:02:52;87416.80;;;-29.50
74539;BMP180;66042;51.090;-115.340;2024-01-15T13:05:20;87421.40;;;-29.60
74539;BMP180;66042;51.090;-115.340;2024-01-15T13:07:49;87417.40;;;-29.50
74539;BMP180;66042;51.090;-115.340;2024-01-15T13:10:16;87415.60;;;-29.50
74539;BMP180;66042;51.090;-115.340;2024-01-15T13:12:43;87406.40;;;-29.40
74539;BMP180;66042;51.090;-115.340;2024-01-15T13:15:10;87398.20;;;-29.22
74539;BMP180;66042;51.090;-115.340;2024-01-15T13:17:39;87396.80;;;-29.10
74539;BMP180;66042;51.090;-115.340;2024-01-15T13:20:07;87389.00;;;-29.10
74539;BMP180;66042;51.090;-115.340;2024-01-15T13:22:35;87388.60;;;-29.06
74539;BMP180;66042;51.090;-115.340;2024-01-15T13:25:02;87390.40;;;-29.00
74539;BMP180;66042;51.090;-115.340;2024-01-15T13:27:30;87402.40;;;-28.90
74539;BMP180;66042;51.090;-115.340;2024-01-15T13:29:58;87396.20;;;-28.90